Aliceville, Alabama
Current Conditions -  °F | °C
As of 5:53 AM on Thursday 18 Dec 2014 (Local Time) from KTCL Reporting Station
Broken Clouds Broken Clouds  
Wind Chill: 37°   Ceiling: 11000
Heat Index: 37°   Visibility: 10mi
Dew Point: 34°   Wind: 3mph
Humidity: 89%   Direction: 30°NNE
Pressure: 30.24"   Gusts: NA
Location:  33.13°N, 88.15°W
Report Text: KTCL 181153Z AUTO 03003KT 10SM FEW075 BKN110 03/01 A3024 RMK AO2 SLP240 T00280011 10039 20011 51004
Loading
Personal Weather Stations






























Interactive Weather Map New forecast layout! Learn more

10-Day Weather Forecast

Advertisements
Track Severe Weather on mobile